sensor_id;sensor_type;location;lat;lon;timestamp;pressure;altitude;pressure_sealevel;temperature;humidity
50123;BME280;36021;48.670;6.184;2023-01-01T00:01:45;99202.19;;;13.08;100.00
50123;BME280;36021;48.670;6.184;2023-01-01T00:04:11;99200.28;;;13.09;100.00
50123;BME280;36021;48.670;6.184;2023-01-01T00:06:37;99192.94;;;12.99;100.00
50123;BME280;36021;48.670;6.184;2023-01-01T00:09:03;99205.66;;;13.00;100.00
50123;BME280;36021;48.670;6.184;2023-01-01T00:11:47;99211.59;;;12.93;100.00
50123;BME280;36021;48.670;6.184;2023-01-01T00:14:12;99219.38;;;12.91;100.00
50123;BME280;36021;48.670;6.184;2023-01-01T00:16:38;99205.34;;;12.88;100.00
50123;BME280;36021;48.670;6.184;2023-01-01T00:19:03;99209.81;;;12.84;100.00
50123;BME280;36021;48.670;6.184;2023-01-01T00:21:29;99220.16;;;12.78;100.00
50123;BME280;36021;48.670;6.184;2023-01-01T00:23:55;99216.06;;;12.76;100.00
50123;BME280;36021;48.670;6.184;2023-01-01T00:26:20;99225.00;;;12.73;100.00
50123;BME280;36021;48.670;6.184;2023-01-01T00:28:46;99220.56;;;12.72;100.00
50123;BME280;36021;48.670;6.184;2023-01-01T00:31:13;99231.63;;;12.72;100.00
50123;BME280;36021;48.670;6.184;2023-01-01T00:33:41;99224.16;;;12.72;100.00
50123;BME280;36021;48.670;6.184;2023-01-01T00:36:07;99219.25;;;12.69;100.00
50123;BME280;36021;48.670;6.184;2023-01-01T00:38:33;99215.25;;;12.75;100.00
50123;BME280;36021;48.670;6.184;2023-01-01T00:40:59;99218.91;;;12.71;100.00
50123;BME280;36021;48.670;6.184;2023-01-01T00:43:24;99214.00;;;12.68;100.00
50123;BME280;36021;48.670;6.184;2023-01-01T00:45:50;99211.22;;;12.68;100.00
50123;BME280;36021;48.670;6.184;2023-01-01T00:48:20;99190.22;;;12.67;100.00
50123;BME280;36021;48.670;6.184;2023-01-01T00:50:46;99180.00;;;12.67;100.00
50123;BME280;36021;48.670;6.184;2023-01-01T00:53:12;99182.25;;;12.65;100.00
50123;BME280;36021;48.670;6.184;2023-01-01T00:55:38;99179.16;;;12.67;100.00
50123;BME280;36021;48.670;6.184;2023-01-01T00:58:04;99188.59;;;12.66;100.00
50123;BME280;36021;48.670;6.184;2023-01-01T01:00:30;99202.94;;;12.68;100.00
50123;BME280;36021;48.670;6.184;2023-01-01T01:02:56;99181.72;;;12.63;100.00
50123;BME280;36021;48.670;6.184;2023-01-01T01:05:22;99190.84;;;12.64;100.00
50123;BME280;36021;48.670;6.184;2023-01-01T01:07:48;99189.22;;;12.63;100.00
50123;BME280;36021;48.670;6.184;2023-01-01T01:10:13;99207.53;;;12.59;100.00
50123;BME280;36021;48.670;6.184;2023-01-01T01:12:39;99195.34;;;12.60;100.00
50123;BME280;36021;48.670;6.184;2023-01-01T01:15:05;99209.69;;;12.62;100.00
50123;BME280;36021;48.670;6.184;2023-01-01T01:17:32;99201.38;;;12.62;100.00
50123;BME280;36021;48.670;6.184;2023-01-01T01:19:57;99201.38;;;12.62;100.00
50123;BME280;36021;48.670;6.184;2023-01-01T01:22:24;99195.53;;;12.63;100.00
50123;BME280;36021;48.670;6.184;2023-01-01T01:24:50;99199.13;;;12.64;100.00
50123;BME280;36021;48.670;6.184;2023-01-01T01:27:16;99199.66;;;12.66;100.00
50123;BME280;36021;48.670;6.184;2023-01-01T01:29:41;99200.78;;;12.65;100.00
50123;BME280;36021;48.670;6.184;2023-01-01T01:32:07;99203.66;;;12.73;100.00
50123;BME280;36021;48.670;6.184;2023-01-01T01:34:32;99197.44;;;12.81;100.00
50123;BME280;36021;48.670;6.184;2023-01-01T01:36:58;99203.69;;;12.87;100.00
50123;BME280;36021;48.670;6.184;2023-01-01T01:39:23;99213.72;;;12.83;100.00
50123;BME280;36021;48.670;6.184;2023-01-01T01:41:49;99201.53;;;12.84;100.00
50123;BME280;36021;48.670;6.184;2023-01-01T01:46:59;99207.06;;;12.84;100.00
50123;BME280;36021;48.670;6.184;2023-01-01T01:49:29;99214.75;;;12.87;100.00
50123;BME280;36021;48.670;6.184;2023-01-01T01:51:56;99205.94;;;12.85;100.00
50123;BME280;36021;48.670;6.184;2023-01-01T01:54:24;99207.59;;;12.86;100.00
50123;BME280;36021;48.670;6.184;2023-01-01T01:56:53;99204.28;;;12.84;100.00
50123;BME280;36021;48.670;6.184;2023-01-01T01:59:20;99205.63;;;12.86;100.00
50123;BME280;36021;48.670;6.184;2023-01-01T02:01:47;99203.19;;;12.85;100.00
50123;BME280;36021;48.670;6.184;2023-01-01T02:04:12;99205.00;;;12.89;100.00
50123;BME280;36021;48.670;6.184;2023-01-01T02:06:38;99204.72;;;12.91;100.00
50123;BME280;36021;48.670;6.184;2023-01-01T02:09:04;99211.06;;;12.91;100.00
50123;BME280;36021;48.670;6.184;2023-01-01T02:11:31;99211.38;;;12.90;100.00
50123;BME280;36021;48.670;6.184;2023-01-01T02:13:56;99210.38;;;12.86;100.00
50123;BME280;36021;48.670;6.184;2023-01-01T02:16:28;99201.13;;;12.90;100.00
50123;BME280;36021;48.670;6.184;2023-01-01T02:19:04;99238.13;;;12.94;100.00
50123;BME280;36021;48.670;6.184;2023-01-01T02:21:43;99215.06;;;12.99;100.00
50123;BME280;36021;48.670;6.184;2023-01-01T02:27:12;99247.69;;;13.02;100.00
50123;BME280;36021;48.670;6.184;2023-01-01T02:29:44;99217.75;;;13.04;100.00
50123;BME280;36021;48.670;6.184;2023-01-01T02:32:12;99210.88;;;13.01;100.00
50123;BME280;36021;48.670;6.184;2023-01-01T02:34:39;99203.69;;;13.00;100.00
50123;BME280;36021;48.670;6.184;2023-01-01T02:37:07;99199.59;;;12.98;100.00
50123;BME280;36021;48.670;6.184;2023-01-01T02:39:34;99216.72;;;13.00;100.00
50123;BME280;36021;48.670;6.184;2023-01-01T02:42:02;99214.78;;;13.00;100.00
50123;BME280;36021;48.670;6.184;2023-01-01T02:44:29;99199.00;;;13.01;100.00
50123;BME280;36021;48.670;6.184;2023-01-01T02:46:56;99216.91;;;13.03;100.00
50123;BME280;36021;48.670;6.184;2023-01-01T02:49:29;99208.94;;;13.02;100.00
50123;BME280;36021;48.670;6.184;2023-01-01T02:54:29;99227.69;;;13.05;100.00
50123;BME280;36021;48.670;6.184;2023-01-01T03:02:32;99234.03;;;13.05;100.00
50123;BME280;36021;48.670;6.184;2023-01-01T03:10:40;99248.47;;;13.02;100.00
50123;BME280;36021;48.670;6.184;2023-01-01T03:13:12;99227.16;;;13.03;100.00
50123;BME280;36021;48.670;6.184;2023-01-01T03:15:45;99234.97;;;13.01;100.00
50123;BME280;36021;48.670;6.184;2023-01-01T03:18:20;99229.44;;;13.01;100.00
50123;BME280;36021;48.670;6.184;2023-01-01T03:20:48;99248.09;;;12.95;100.00
50123;BME280;36021;48.670;6.184;2023-01-01T03:23:20;99246.03;;;13.01;100.00
50123;BME280;36021;48.670;6.184;2023-01-01T03:25:49;99223.91;;;13.01;100.00
50123;BME280;36021;48.670;6.184;2023-01-01T03:28:17;99234.97;;;13.01;100.00
50123;BME280;36021;48.670;6.184;2023-01-01T03:30:45;99225.84;;;13.00;100.00
50123;BME280;36021;48.670;6.184;2023-01-01T03:33:14;99246.09;;;12.96;100.00
50123;BME280;36021;48.670;6.184;2023-01-01T03:35:45;99237.81;;;12.96;100.00
50123;BME280;36021;48.670;6.184;2023-01-01T03:38:15;99237.31;;;12.94;100.00
50123;BME280;36021;48.670;6.184;2023-01-01T03:40:42;99233.94;;;12.97;100.00
50123;BME280;36021;48.670;6.184;2023-01-01T03:43:15;99232.81;;;12.98;100.00
50123;BME280;36021;48.670;6.184;2023-01-01T03:45:43;99256.06;;;12.97;100.00
50123;BME280;36021;48.670;6.184;2023-01-01T03:48:10;99242.72;;;12.99;100.00
50123;BME280;36021;48.670;6.184;2023-01-01T03:50:43;99238.34;;;12.98;100.00
50123;BME280;36021;48.670;6.184;2023-01-01T03:53:18;99233.41;;;12.95;100.00
50123;BME280;36021;48.670;6.184;2023-01-01T03:55:54;99243.66;;;12.94;100.00
50123;BME280;36021;48.670;6.184;2023-01-01T03:58:37;99242.94;;;12.89;100.00
50123;BME280;36021;48.670;6.184;2023-01-01T04:01:12;99227.34;;;12.93;100.00
50123;BME280;36021;48.670;6.184;2023-01-01T04:03:40;99239.34;;;12.88;100.00
50123;BME280;36021;48.670;6.184;2023-01-01T04:06:07;99231.97;;;12.84;100.00
50123;BME280;36021;48.670;6.184;2023-01-01T04:08:33;99238.03;;;12.86;100.00
50123;BME280;36021;48.670;6.184;2023-01-01T04:11:02;99251.31;;;12.84;100.00
50123;BME280;36021;48.670;6.184;2023-01-01T04:13:49;99241.38;;;12.83;100.00
50123;BME280;36021;48.670;6.184;2023-01-01T04:16:15;99245.78;;;12.84;100.00
50123;BME280;36021;48.670;6.184;2023-01-01T04:18:40;99250.50;;;12.83;100.00
50123;BME280;36021;48.670;6.184;2023-01-01T04:21:06;99250.50;;;12.83;100.00
50123;BME280;36021;48.670;6.184;2023-01-01T04:23:32;99243.34;;;12.82;100.00
50123;BME280;36021;48.670;6.184;2023-01-01T04:25:58;99240.78;;;12.86;100.00
50123;BME280;36021;48.670;6.184;2023-01-01T04:28:23;99248.03;;;12.82;100.00
50123;BME280;36021;48.670;6.184;2023-01-01T04:30:49;99254.41;;;12.82;100.00
50123;BME280;36021;48.670;6.184;2023-01-01T04:33:14;99259.63;;;12.84;100.00
50123;BME280;36021;48.670;6.184;2023-01-01T04:35:40;99249.38;;;12.84;100.00
50123;BME280;36021;48.670;6.184;2023-01-01T04:38:05;99250.81;;;12.82;100.00
50123;BME280;36021;48.670;6.184;2023-01-01T04:40:31;99267.47;;;12.77;100.00
50123;BME280;36021;48.670;6.184;2023-01-01T04:42:56;99257.69;;;12.84;100.00
50123;BME280;36021;48.670;6.184;2023-01-01T04:45:22;99241.59;;;12.86;100.00
50123;BME280;36021;48.670;6.184;2023-01-01T04:47:47;99256.84;;;12.84;100.00
50123;BME280;36021;48.670;6.184;2023-01-01T04:50:13;99260.53;;;12.79;100.00
50123;BME280;36021;48.670;6.184;2023-01-01T04:52:39;99248.03;;;12.82;100.00
50123;BME280;36021;48.670;6.184;2023-01-01T04:55:05;99259.72;;;12.79;100.00
50123;BME280;36021;48.670;6.184;2023-01-01T04:57:30;99258.06;;;12.78;100.00
50123;BME280;36021;48.670;6.184;2023-01-01T04:59:56;99268.63;;;12.76;100.00
50123;BME280;36021;48.670;6.184;2023-01-01T05:02:22;99261.34;;;12.80;100.00
50123;BME280;36021;48.670;6.184;2023-01-01T05:04:48;99268.53;;;12.81;100.00
50123;BME280;36021;48.670;6.184;2023-01-01T05:07:13;99265.75;;;12.81;100.00
50123;BME280;36021;48.670;6.184;2023-01-01T05:09:38;99255.31;;;12.78;100.00
50123;BME280;36021;48.670;6.184;2023-01-01T05:12:04;99271.00;;;12.82;100.00
50123;BME280;36021;48.670;6.184;2023-01-01T05:14:30;99278.97;;;12.84;100.00
50123;BME280;36021;48.670;6.184;2023-01-01T05:16:55;99275.31;;;12.88;100.00
50123;BME280;36021;48.670;6.184;2023-01-01T05:19:21;99273.97;;;12.86;100.00
50123;BME280;36021;48.670;6.184;2023-01-01T05:21:46;99276.75;;;12.86;100.00
50123;BME280;36021;48.670;6.184;2023-01-01T05:24:13;99283.06;;;12.86;100.00
50123;BME280;36021;48.670;6.184;2023-01-01T05:26:40;99279.19;;;12.87;100.00
50123;BME280;36021;48.670;6.184;2023-01-01T05:29:06;99281.97;;;12.87;100.00
50123;BME280;36021;48.670;6.184;2023-01-01T05:31:33;99281.97;;;12.87;100.00
50123;BME280;36021;48.670;6.184;2023-01-01T05:33:59;99307.38;;;12.89;100.00
50123;BME280;36021;48.670;6.184;2023-01-01T05:36:29;99288.81;;;12.90;100.00
50123;BME280;36021;48.670;6.184;2023-01-01T05:38:55;99296.63;;;12.88;100.00
50123;BME280;36021;48.670;6.184;2023-01-01T05:41:21;99299.66;;;12.86;100.00
50123;BME280;36021;48.670;6.184;2023-01-01T05:43:47;99304.41;;;12.86;100.00
50123;BME280;36021;48.670;6.184;2023-01-01T05:48:38;99305.53;;;12.85;100.00
50123;BME280;36021;48.670;6.184;2023-01-01T05:53:29;99312.78;;;12.81;100.00
50123;BME280;36021;48.670;6.184;2023-01-01T05:56:00;99319.34;;;12.85;100.00
50123;BME280;36021;48.670;6.184;2023-01-01T05:58:26;99328.78;;;12.84;100.00
50123;BME280;36021;48.670;6.184;2023-01-01T06:00:52;99334.00;;;12.85;100.00
50123;BME280;36021;48.670;6.184;2023-01-01T06:03:19;99319.97;;;12.82;100.00
50123;BME280;36021;48.670;6.184;2023-01-01T06:05:44;99326.59;;;12.81;100.00
50123;BME280;36021;48.670;6.184;2023-01-01T06:08:11;99318.63;;;12.79;100.00
50123;BME280;36021;48.670;6.184;2023-01-01T06:10:36;99322.19;;;12.80;100.00
50123;BME280;36021;48.670;6.184;2023-01-01T06:13:02;99325.56;;;12.77;100.00
50123;BME280;36021;48.670;6.184;2023-01-01T06:15:28;99334.41;;;12.79;100.00
50123;BME280;36021;48.670;6.184;2023-01-01T06:17:53;99329.97;;;12.78;100.00
50123;BME280;36021;48.670;6.184;2023-01-01T06:20:19;99342.75;;;12.74;100.00
50123;BME280;36021;48.670;6.184;2023-01-01T06:22:45;99341.66;;;12.75;100.00
50123;BME280;36021;48.670;6.184;2023-01-01T06:25:11;99344.47;;;12.70;100.00
50123;BME280;36021;48.670;6.184;2023-01-01T06:27:37;99345.03;;;12.72;100.00
50123;BME280;36021;48.670;6.184;2023-01-01T06:30:03;99350.00;;;12.70;100.00
50123;BME280;36021;48.670;6.184;2023-01-01T06:32:28;99356.09;;;12.72;100.00
50123;BME280;36021;48.670;6.184;2023-01-01T06:34:54;99367.16;;;12.72;100.00
50123;BME280;36021;48.670;6.184;2023-01-01T06:37:19;99358.84;;;12.72;100.00
50123;BME280;36021;48.670;6.184;2023-01-01T06:39:45;99364.97;;;12.69;100.00
50123;BME280;36021;48.670;6.184;2023-01-01T06:42:11;99379.91;;;12.68;100.00
50123;BME280;36021;48.670;6.184;2023-01-01T06:44:38;99373.28;;;12.69;100.00
50123;BME280;36021;48.670;6.184;2023-01-01T06:47:04;99376.03;;;12.69;100.00
50123;BME280;36021;48.670;6.184;2023-01-01T06:49:29;99387.16;;;12.64;100.00
50123;BME280;36021;48.670;6.184;2023-01-01T06:51:56;99372.13;;;12.70;100.00
50123;BME280;36021;48.670;6.184;2023-01-01T06:54:22;99380.28;;;12.61;100.00
50123;BME280;36021;48.670;6.184;2023-01-01T06:56:48;99380.53;;;12.65;100.00
50123;BME280;36021;48.670;6.184;2023-01-01T06:59:15;99371.72;;;12.63;100.00
50123;BME280;36021;48.670;6.184;2023-01-01T07:01:40;99375.09;;;12.60;100.00
50123;BME280;36021;48.670;6.184;2023-01-01T07:04:06;99384.19;;;12.60;100.00
50123;BME280;36021;48.670;6.184;2023-01-01T07:06:32;99362.06;;;12.60;100.00
50123;BME280;36021;48.670;6.184;2023-01-01T07:08:58;99379.84;;;12.54;100.00
50123;BME280;36021;48.670;6.184;2023-01-01T07:11:26;99388.47;;;12.52;100.00
50123;BME280;36021;48.670;6.184;2023-01-01T07:13:51;99379.34;;;12.52;100.00
50123;BME280;36021;48.670;6.184;2023-01-01T07:16:17;99390.16;;;12.48;100.00
50123;BME280;36021;48.670;6.184;2023-01-01T07:18:42;99377.78;;;12.46;100.00
50123;BME280;36021;48.670;6.184;2023-01-01T07:23:52;99376.13;;;12.45;100.00
50123;BME280;36021;48.670;6.184;2023-01-01T07:26:24;99371.19;;;12.42;100.00
50123;BME280;36021;48.670;6.184;2023-01-01T07:28:51;99377.81;;;12.41;100.00
50123;BME280;36021;48.670;6.184;2023-01-01T07:31:17;99372.28;;;12.41;100.00
50123;BME280;36021;48.670;6.184;2023-01-01T07:33:43;99393.06;;;12.38;100.00
50123;BME280;36021;48.670;6.184;2023-01-01T07:36:08;99382.25;;;12.42;100.00
50123;BME280;36021;48.670;6.184;2023-01-01T07:38:34;99388.59;;;12.42;100.00
50123;BME280;36021;48.670;6.184;2023-01-01T07:40:59;99392.47;;;12.41;100.00
50123;BME280;36021;48.670;6.184;2023-01-01T07:43:25;99391.41;;;12.37;100.00
50123;BME280;36021;48.670;6.184;2023-01-01T07:45:51;99391.41;;;12.37;100.00
50123;BME280;36021;48.670;6.184;2023-01-01T07:48:16;99409.88;;;12.42;100.00
50123;BME280;36021;48.670;6.184;2023-01-01T07:50:42;99413.75;;;12.41;100.00
50123;BME280;36021;48.670;6.184;2023-01-01T07:53:08;99418.78;;;12.39;100.00
50123;BME280;36021;48.670;6.184;2023-01-01T07:55:34;99417.66;;;12.40;100.00
50123;BME280;36021;48.670;6.184;2023-01-01T07:58:01;99430.56;;;12.44;100.00
50123;BME280;36021;48.670;6.184;2023-01-01T08:00:26;99452.31;;;12.51;100.00
50123;BME280;36021;48.670;6.184;2023-01-01T08:02:52;99434.41;;;12.48;100.00
50123;BME280;36021;48.670;6.184;2023-01-01T08:05:18;99432.09;;;12.56;100.00
50123;BME280;36021;48.670;6.184;2023-01-01T08:07:47;99436.94;;;12.64;100.00
50123;BME280;36021;48.670;6.184;2023-01-01T08:10:14;99429.94;;;12.71;100.00
50123;BME280;36021;48.670;6.184;2023-01-01T08:12:42;99441.44;;;12.78;100.00
50123;BME280;36021;48.670;6.184;2023-01-01T08:15:09;99446.16;;;12.78;100.00
50123;BME280;36021;48.670;6.184;2023-01-01T08:17:35;99440.91;;;12.76;100.00
50123;BME280;36021;48.670;6.184;2023-01-01T08:20:00;99444.50;;;12.77;100.00
50123;BME280;36021;48.670;6.184;2023-01-01T08:22:27;99442.56;;;12.77;100.00
50123;BME280;36021;48.670;6.184;2023-01-01T08:24:52;99436.63;;;13.02;100.00
50123;BME280;36021;48.670;6.184;2023-01-01T08:27:20;99420.28;;;13.38;100.00
50123;BME280;36021;48.670;6.184;2023-01-01T08:29:45;99425.28;;;13.69;100.00
50123;BME280;36021;48.670;6.184;2023-01-01T08:32:11;99431.34;;;13.84;100.00
50123;BME280;36021;48.670;6.184;2023-01-01T08:34:37;99418.75;;;14.05;100.00
50123;BME280;36021;48.670;6.184;2023-01-01T08:37:02;99435.81;;;14.26;100.00
50123;BME280;36021;48.670;6.184;2023-01-01T08:39:28;99442.88;;;14.32;100.00
50123;BME280;36021;48.670;6.184;2023-01-01T08:41:54;99425.91;;;14.61;100.00
50123;BME280;36021;48.670;6.184;2023-01-01T08:44:20;99430.47;;;14.30;100.00
50123;BME280;36021;48.670;6.184;2023-01-01T08:46:45;99425.72;;;14.30;100.00
50123;BME280;36021;48.670;6.184;2023-01-01T08:49:11;99421.69;;;14.64;100.00
50123;BME280;36021;48.670;6.184;2023-01-01T08:51:37;99417.53;;;14.88;100.00
50123;BME280;36021;48.670;6.184;2023-01-01T08:54:04;99430.69;;;14.83;100.00
50123;BME280;36021;48.670;6.184;2023-01-01T08:56:31;99429.34;;;15.38;100.00
50123;BME280;36021;48.670;6.184;2023-01-01T08:58:57;99441.56;;;15.51;100.00
50123;BME280;36021;48.670;6.184;2023-01-01T09:01:22;99430.59;;;15.54;100.00
50123;BME280;36021;48.670;6.184;2023-01-01T09:03:50;99434.53;;;15.31;100.00
50123;BME280;36021;48.670;6.184;2023-01-01T09:06:16;99440.34;;;15.21;100.00
50123;BME280;36021;48.670;6.184;2023-01-01T09:08:41;99428.22;;;15.17;100.00
50123;BME280;36021;48.670;6.184;2023-01-01T09:11:22;99424.16;;;15.23;100.00
50123;BME280;36021;48.670;6.184;2023-01-01T09:13:48;99440.19;;;15.04;100.00
50123;BME280;36021;48.670;6.184;2023-01-01T09:16:15;99440.81;;;15.01;100.00
50123;BME280;36021;48.670;6.184;2023-01-01T09:18:40;99440.59;;;14.75;100.00
50123;BME280;36021;48.670;6.184;2023-01-01T09:21:06;99432.09;;;14.44;100.00
50123;BME280;36021;48.670;6.184;2023-01-01T09:23:31;99442.47;;;14.12;100.00
50123;BME280;36021;48.670;6.184;2023-01-01T09:26:05;99433.94;;;13.94;100.00
50123;BME280;36021;48.670;6.184;2023-01-01T09:28:31;99447.88;;;13.76;100.00
50123;BME280;36021;48.670;6.184;2023-01-01T09:30:57;99434.03;;;13.76;100.00
50123;BME280;36021;48.670;6.184;2023-01-01T09:33:24;99439.13;;;13.69;100.00
50123;BME280;36021;48.670;6.184;2023-01-01T09:35:49;99434.63;;;13.73;100.00
50123;BME280;36021;48.670;6.184;2023-01-01T09:38:15;99432.25;;;13.66;100.00
50123;BME280;36021;48.670;6.184;2023-01-01T09:43:13;99438.22;;;13.73;100.00
50123;BME280;36021;48.670;6.184;2023-01-01T09:45:59;99438.72;;;13.75;100.00
50123;BME280;36021;48.670;6.184;2023-01-01T09:48:25;99436.69;;;13.67;100.00
50123;BME280;36021;48.670;6.184;2023-01-01T09:50:52;99432.16;;;13.57;100.00
50123;BME280;36021;48.670;6.184;2023-01-01T09:53:29;99426.28;;;13.59;100.00
50123;BME280;36021;48.670;6.184;2023-01-01T09:55:56;99429.38;;;13.57;100.00
50123;BME280;36021;48.670;6.184;2023-01-01T09:58:24;99435.44;;;13.60;100.00
50123;BME280;36021;48.670;6.184;2023-01-01T10:00:51;99433.16;;;13.62;100.00
50123;BME280;36021;48.670;6.184;2023-01-01T10:03:19;99437.50;;;13.68;100.00
50123;BME280;36021;48.670;6.184;2023-01-01T10:05:59;99436.38;;;13.69;100.00
50123;BME280;36021;48.670;6.184;2023-01-01T10:08:40;99426.22;;;13.78;100.00
50123;BME280;36021;48.670;6.184;2023-01-01T10:13:40;99423.66;;;13.81;100.00
50123;BME280;36021;48.670;6.184;2023-01-01T10:18:38;99438.66;;;13.94;100.00
50123;BME280;36021;48.670;6.184;2023-01-01T10:21:11;99428.09;;;13.96;100.00
50123;BME280;36021;48.670;6.184;2023-01-01T10:23:41;99418.84;;;14.00;100.00
50123;BME280;36021;48.670;6.184;2023-01-01T10:26:13;99424.09;;;14.02;100.00
50123;BME280;36021;48.670;6.184;2023-01-01T10:28:45;99420.28;;;14.12;100.00
50123;BME280;36021;48.670;6.184;2023-01-01T10:31:18;99414.25;;;14.23;100.00
50123;BME280;36021;48.670;6.184;2023-01-01T10:33:44;99407.56;;;14.38;100.00
50123;BME280;36021;48.670;6.184;2023-01-01T10:36:12;99398.72;;;14.49;100.00
50123;BME280;36021;48.670;6.184;2023-01-01T10:38:38;99408.34;;;14.66;100.00
50123;BME280;36021;48.670;6.184;2023-01-01T10:41:08;99406.75;;;14.73;100.00
50123;BME280;36021;48.670;6.184;2023-01-01T10:43:34;99409.53;;;14.73;100.00
50123;BME280;36021;48.670;6.184;2023-01-01T10:45:59;99409.00;;;14.85;100.00
50123;BME280;36021;48.670;6.184;2023-01-01T10:48:27;99390.72;;;14.84;100.00
50123;BME280;36021;48.670;6.184;2023-01-01T10:50:58;99389.19;;;14.78;100.00
50123;BME280;36021;48.670;6.184;2023-01-01T10:53:38;99387.94;;;14.84;100.00
50123;BME280;36021;48.670;6.184;2023-01-01T11:01:00;99373.03;;;15.02;100.00
50123;BME280;36021;48.670;6.184;2023-01-01T11:03:26;99367.69;;;14.83;100.00
50123;BME280;36021;48.670;6.184;2023-01-01T11:08:37;99364.16;;;14.91;100.00
50123;BME280;36021;48.670;6.184;2023-01-01T11:11:04;99355.69;;;14.74;100.00
50123;BME280;36021;48.670;6.184;2023-01-01T11:13:30;99356.97;;;14.68;100.00
50123;BME280;36021;48.670;6.184;2023-01-01T11:15:57;99348.09;;;14.66;100.00
50123;BME280;36021;48.670;6.184;2023-01-01T11:18:30;99350.09;;;14.66;100.00
50123;BME280;36021;48.670;6.184;2023-01-01T11:21:00;99355.75;;;14.60;100.00
50123;BME280;36021;48.670;6.184;2023-01-01T11:23:34;99348.53;;;14.59;100.00
50123;BME280;36021;48.670;6.184;2023-01-01T11:26:02;99335.19;;;14.62;100.00
50123;BME280;36021;48.670;6.184;2023-01-01T11:28:28;99332.09;;;14.63;100.00
50123;BME280;36021;48.670;6.184;2023-01-01T11:31:00;99331.09;;;14.59;100.00
50123;BME280;36021;48.670;6.184;2023-01-01T11:33:26;99327.38;;;14.64;100.00
50123;BME280;36021;48.670;6.184;2023-01-01T11:35:55;99325.75;;;14.63;100.00
50123;BME280;36021;48.670;6.184;2023-01-01T11:38:21;99322.00;;;14.67;100.00
50123;BME280;36021;48.670;6.184;2023-01-01T11:40:48;99320.13;;;14.76;100.00
50123;BME280;36021;48.670;6.184;2023-01-01T11:43:18;99314.56;;;14.76;100.00
50123;BME280;36021;48.670;6.184;2023-01-01T11:45:46;99313.16;;;14.79;100.00
50123;BME280;36021;48.670;6.184;2023-01-01T11:48:16;99305.31;;;14.81;100.00
50123;BME280;36021;48.670;6.184;2023-01-01T11:50:49;99306.38;;;14.71;100.00
50123;BME280;36021;48.670;6.184;2023-01-01T11:53:17;99312.13;;;14.75;100.00
50123;BME280;36021;48.670;6.184;2023-01-01T11:55:44;99307.75;;;14.82;100.00
50123;BME280;36021;48.670;6.184;2023-01-01T11:58:25;99314.97;;;14.83;100.00
50123;BME280;36021;48.670;6.184;2023-01-01T12:00:58;99319.56;;;14.88;100.00
50123;BME280;36021;48.670;6.184;2023-01-01T12:03:29;99299.88;;;14.98;100.00
50123;BME280;36021;48.670;6.184;2023-01-01T12:08:44;99301.75;;;14.89;100.00
50123;BME280;36021;48.670;6.184;2023-01-01T12:11:16;99298.69;;;14.90;100.00
50123;BME280;36021;48.670;6.184;2023-01-01T12:19:02;99282.78;;;14.82;100.00
50123;BME280;36021;48.670;6.184;2023-01-01T12:21:29;99288.41;;;14.91;100.00
50123;BME280;36021;48.670;6.184;2023-01-01T12:23:56;99284.13;;;14.85;100.00
50123;BME280;36021;48.670;6.184;2023-01-01T12:26:28;99280.63;;;14.79;100.00
50123;BME280;36021;48.670;6.184;2023-01-01T12:34:26;99289.03;;;14.88;100.00
50123;BME280;36021;48.670;6.184;2023-01-01T12:37:09;99275.66;;;14.90;100.00
50123;BME280;36021;48.670;6.184;2023-01-01T12:42:23;99279.13;;;15.26;100.00
50123;BME280;36021;48.670;6.184;2023-01-01T12:47:57;99259.09;;;15.38;100.00
50123;BME280;36021;48.670;6.184;2023-01-01T12:53:03;99257.41;;;15.68;100.00
50123;BME280;36021;48.670;6.184;2023-01-01T12:58:15;99257.56;;;15.54;100.00
50123;BME280;36021;48.670;6.184;2023-01-01T13:00:49;99260.00;;;15.55;100.00
50123;BME280;36021;48.670;6.184;2023-01-01T13:03:19;99254.72;;;15.93;100.00
50123;BME280;36021;48.670;6.184;2023-01-01T13:05:47;99249.66;;;16.21;100.00
50123;BME280;36021;48.670;6.184;2023-01-01T13:08:14;99251.00;;;16.32;100.00
50123;BME280;36021;48.670;6.184;2023-01-01T13:10:43;99243.44;;;16.76;100.00
50123;BME280;36021;48.670;6.184;2023-01-01T13:13:12;99246.03;;;16.98;100.00
50123;BME280;36021;48.670;6.184;2023-01-01T13:20:43;99228.72;;;16.49;100.00
50123;BME280;36021;48.670;6.184;2023-01-01T13:28:39;99226.94;;;15.93;100.00
50123;BME280;36021;48.670;6.184;2023-01-01T13:31:04;99238.19;;;15.97;100.00
50123;BME280;36021;48.670;6.184;2023-01-01T13:33:30;99235.56;;;15.92;100.00
50123;BME280;36021;48.670;6.184;2023-01-01T13:38:47;99235.06;;;15.73;100.00
50123;BME280;36021;48.670;6.184;2023-01-01T13:46:22;99229.63;;;15.68;100.00
50123;BME280;36021;48.670;6.184;2023-01-01T13:48:59;99231.09;;;15.65;100.00
50123;BME280;36021;48.670;6.184;2023-01-01T14:04:35;99237.22;;;15.45;100.00
50123;BME280;36021;48.670;6.184;2023-01-01T14:07:50;99227.56;;;15.42;100.00
50123;BME280;36021;48.670;6.184;2023-01-01T14:09:50;99222.66;;;15.39;100.00
50123;BME280;36021;48.670;6.184;2023-01-01T14:12:16;99212.19;;;15.36;100.00
50123;BME280;36021;48.670;6.184;2023-01-01T14:14:42;99208.28;;;15.37;100.00
50123;BME280;36021;48.670;6.184;2023-01-01T14:17:08;99199.25;;;15.32;100.00
50123;BME280;36021;48.670;6.184;2023-01-01T14:19:37;99196.81;;;15.30;100.00
50123;BME280;36021;48.670;6.184;2023-01-01T14:22:06;99196.31;;;15.28;100.00
50123;BME280;36021;48.670;6.184;2023-01-01T14:24:32;99192.09;;;15.31;100.00
50123;BME280;36021;48.670;6.184;2023-01-01T14:27:04;99195.38;;;15.41;100.00
50123;BME280;36021;48.670;6.184;2023-01-01T14:29:30;99193.97;;;15.52;100.00
50123;BME280;36021;48.670;6.184;2023-01-01T14:31:56;99199.03;;;15.50;100.00